sensor_id;sensor_type;location;lat;lon;timestamp;P1;durP1;ratioP1;P2;durP2;ratioP2
68714;SDS011;55692;53.356;10.030;2023-09-30T00:00:46;23.75;;;4.63;;
68714;SDS011;55692;53.356;10.030;2023-09-30T00:03:12;25.05;;;5.05;;
68714;SDS011;55692;53.356;10.030;2023-09-30T00:05:38;17.00;;;3.60;;
68714;SDS011;55692;53.356;10.030;2023-09-30T00:08:04;18.05;;;4.07;;
68714;SDS011;55692;53.356;10.030;2023-09-30T00:10:31;17.20;;;3.80;;
68714;SDS011;55692;53.356;10.030;2023-09-30T00:12:57;19.55;;;4.22;;
68714;SDS011;55692;53.356;10.030;2023-09-30T00:15:24;22.42;;;4.78;;
68714;SDS011;55692;53.356;10.030;2023-09-30T00:17:50;33.72;;;5.68;;
68714;SDS011;55692;53.356;10.030;2023-09-30T00:20:16;21.25;;;4.45;;
68714;SDS011;55692;53.356;10.030;2023-09-30T00:22:42;20.90;;;3.95;;
68714;SDS011;55692;53.356;10.030;2023-09-30T00:25:08;20.52;;;4.05;;
68714;SDS011;55692;53.356;10.030;2023-09-30T00:27:35;19.20;;;3.92;;
68714;SDS011;55692;53.356;10.030;2023-09-30T00:30:01;19.45;;;3.78;;
68714;SDS011;55692;53.356;10.030;2023-09-30T00:32:28;18.10;;;4.20;;
68714;SDS011;55692;53.356;10.030;2023-09-30T00:34:54;24.50;;;4.22;;
68714;SDS011;55692;53.356;10.030;2023-09-30T00:37:20;21.42;;;3.60;;
68714;SDS011;55692;53.356;10.030;2023-09-30T00:39:46;19.73;;;3.80;;
68714;SDS011;55692;53.356;10.030;2023-09-30T00:42:12;30.48;;;4.65;;
68714;SDS011;55692;53.356;10.030;2023-09-30T00:44:38;26.45;;;4.85;;
68714;SDS011;55692;53.356;10.030;2023-09-30T00:47:04;17.67;;;4.93;;
68714;SDS011;55692;53.356;10.030;2023-09-30T00:49:30;25.80;;;4.82;;
68714;SDS011;55692;53.356;10.030;2023-09-30T00:51:56;29.10;;;4.82;;
68714;SDS011;55692;53.356;10.030;2023-09-30T00:54:23;28.15;;;4.22;;
68714;SDS011;55692;53.356;10.030;2023-09-30T00:56:50;21.20;;;4.25;;
68714;SDS011;55692;53.356;10.030;2023-09-30T00:59:16;20.67;;;4.32;;
68714;SDS011;55692;53.356;10.030;2023-09-30T01:01:43;27.48;;;3.78;;
68714;SDS011;55692;53.356;10.030;2023-09-30T01:04:12;29.75;;;4.80;;
68714;SDS011;55692;53.356;10.030;2023-09-30T01:06:39;24.85;;;4.57;;
68714;SDS011;55692;53.356;10.030;2023-09-30T01:09:05;26.52;;;5.30;;
68714;SDS011;55692;53.356;10.030;2023-09-30T01:11:31;22.98;;;4.50;;
68714;SDS011;55692;53.356;10.030;2023-09-30T01:13:57;27.10;;;4.20;;
68714;SDS011;55692;53.356;10.030;2023-09-30T01:16:23;21.15;;;4.65;;
68714;SDS011;55692;53.356;10.030;2023-09-30T01:18:49;22.73;;;3.67;;
68714;SDS011;55692;53.356;10.030;2023-09-30T01:21:16;27.67;;;4.40;;
68714;SDS011;55692;53.356;10.030;2023-09-30T01:23:43;24.33;;;4.40;;
68714;SDS011;55692;53.356;10.030;2023-09-30T01:26:11;21.75;;;4.82;;
68714;SDS011;55692;53.356;10.030;2023-09-30T01:28:38;24.13;;;5.10;;
68714;SDS011;55692;53.356;10.030;2023-09-30T01:31:04;29.08;;;5.03;;
68714;SDS011;55692;53.356;10.030;2023-09-30T01:33:31;27.88;;;5.68;;
68714;SDS011;55692;53.356;10.030;2023-09-30T01:35:58;25.60;;;4.57;;
68714;SDS011;55692;53.356;10.030;2023-09-30T01:38:24;27.20;;;5.03;;
68714;SDS011;55692;53.356;10.030;2023-09-30T01:40:51;24.33;;;5.13;;
68714;SDS011;55692;53.356;10.030;2023-09-30T01:43:17;34.92;;;5.70;;
68714;SDS011;55692;53.356;10.030;2023-09-30T01:45:43;21.90;;;4.57;;
68714;SDS011;55692;53.356;10.030;2023-09-30T01:48:09;19.63;;;4.65;;
68714;SDS011;55692;53.356;10.030;2023-09-30T01:50:39;24.80;;;5.43;;
68714;SDS011;55692;53.356;10.030;2023-09-30T01:53:05;23.67;;;4.97;;
68714;SDS011;55692;53.356;10.030;2023-09-30T01:55:32;20.83;;;6.38;;
68714;SDS011;55692;53.356;10.030;2023-09-30T01:57:58;28.48;;;5.53;;
68714;SDS011;55692;53.356;10.030;2023-09-30T02:00:24;27.98;;;5.22;;
68714;SDS011;55692;53.356;10.030;2023-09-30T02:02:53;36.20;;;6.15;;
68714;SDS011;55692;53.356;10.030;2023-09-30T02:05:19;22.02;;;5.55;;
68714;SDS011;55692;53.356;10.030;2023-09-30T02:07:45;27.75;;;5.30;;
68714;SDS011;55692;53.356;10.030;2023-09-30T02:10:11;30.90;;;5.82;;
68714;SDS011;55692;53.356;10.030;2023-09-30T02:12:37;39.03;;;5.45;;
68714;SDS011;55692;53.356;10.030;2023-09-30T02:15:03;28.38;;;5.85;;
68714;SDS011;55692;53.356;10.030;2023-09-30T02:17:29;30.05;;;5.55;;
68714;SDS011;55692;53.356;10.030;2023-09-30T02:19:55;29.73;;;5.13;;
68714;SDS011;55692;53.356;10.030;2023-09-30T02:22:21;28.85;;;5.85;;
68714;SDS011;55692;53.356;10.030;2023-09-30T02:24:48;20.95;;;5.13;;
68714;SDS011;55692;53.356;10.030;2023-09-30T02:27:14;31.83;;;6.07;;
68714;SDS011;55692;53.356;10.030;2023-09-30T02:29:40;25.80;;;5.20;;
68714;SDS011;55692;53.356;10.030;2023-09-30T02:32:06;31.55;;;4.97;;
68714;SDS011;55692;53.356;10.030;2023-09-30T02:34:32;26.25;;;5.43;;
68714;SDS011;55692;53.356;10.030;2023-09-30T02:36:58;31.10;;;5.45;;
68714;SDS011;55692;53.356;10.030;2023-09-30T02:39:25;28.80;;;7.22;;
68714;SDS011;55692;53.356;10.030;2023-09-30T02:41:51;28.08;;;5.97;;
68714;SDS011;55692;53.356;10.030;2023-09-30T02:44:17;25.33;;;5.85;;
68714;SDS011;55692;53.356;10.030;2023-09-30T02:46:43;22.85;;;6.07;;
68714;SDS011;55692;53.356;10.030;2023-09-30T02:49:09;38.90;;;5.57;;
68714;SDS011;55692;53.356;10.030;2023-09-30T02:51:35;19.98;;;5.63;;
68714;SDS011;55692;53.356;10.030;2023-09-30T02:54:02;24.35;;;5.07;;
68714;SDS011;55692;53.356;10.030;2023-09-30T02:56:28;26.10;;;4.85;;
68714;SDS011;55692;53.356;10.030;2023-09-30T02:58:55;34.72;;;6.22;;
68714;SDS011;55692;53.356;10.030;2023-09-30T03:01:21;24.55;;;6.60;;
68714;SDS011;55692;53.356;10.030;2023-09-30T03:03:47;28.83;;;5.85;;
68714;SDS011;55692;53.356;10.030;2023-09-30T03:06:13;26.95;;;5.75;;
68714;SDS011;55692;53.356;10.030;2023-09-30T03:08:40;24.60;;;5.75;;
68714;SDS011;55692;53.356;10.030;2023-09-30T03:11:06;32.85;;;6.38;;
68714;SDS011;55692;53.356;10.030;2023-09-30T03:13:32;34.05;;;7.55;;
68714;SDS011;55692;53.356;10.030;2023-09-30T03:15:58;20.05;;;6.00;;
68714;SDS011;55692;53.356;10.030;2023-09-30T03:18:26;28.52;;;5.55;;
68714;SDS011;55692;53.356;10.030;2023-09-30T03:20:57;35.25;;;6.05;;
68714;SDS011;55692;53.356;10.030;2023-09-30T03:23:25;30.03;;;5.40;;
68714;SDS011;55692;53.356;10.030;2023-09-30T03:25:58;25.70;;;5.15;;
68714;SDS011;55692;53.356;10.030;2023-09-30T03:28:24;27.23;;;5.55;;
68714;SDS011;55692;53.356;10.030;2023-09-30T03:30:50;28.45;;;5.72;;
68714;SDS011;55692;53.356;10.030;2023-09-30T03:33:16;27.08;;;5.85;;
68714;SDS011;55692;53.356;10.030;2023-09-30T03:35:42;33.90;;;6.95;;
68714;SDS011;55692;53.356;10.030;2023-09-30T03:38:09;29.15;;;6.28;;
68714;SDS011;55692;53.356;10.030;2023-09-30T03:40:35;39.42;;;7.15;;
68714;SDS011;55692;53.356;10.030;2023-09-30T03:43:03;31.40;;;5.57;;
68714;SDS011;55692;53.356;10.030;2023-09-30T03:45:33;27.02;;;5.05;;
68714;SDS011;55692;53.356;10.030;2023-09-30T03:48:00;32.10;;;5.70;;
68714;SDS011;55692;53.356;10.030;2023-09-30T03:50:27;29.25;;;5.90;;
68714;SDS011;55692;53.356;10.030;2023-09-30T03:53:00;24.85;;;4.93;;
68714;SDS011;55692;53.356;10.030;2023-09-30T03:55:26;30.23;;;5.35;;
68714;SDS011;55692;53.356;10.030;2023-09-30T03:57:52;39.75;;;6.45;;
68714;SDS011;55692;53.356;10.030;2023-09-30T04:00:18;38.42;;;5.95;;
68714;SDS011;55692;53.356;10.030;2023-09-30T04:02:44;27.50;;;5.63;;
68714;SDS011;55692;53.356;10.030;2023-09-30T04:05:14;21.90;;;5.18;;
68714;SDS011;55692;53.356;10.030;2023-09-30T04:07:41;27.88;;;5.70;;
68714;SDS011;55692;53.356;10.030;2023-09-30T04:10:08;26.58;;;5.75;;
68714;SDS011;55692;53.356;10.030;2023-09-30T04:12:34;27.35;;;5.38;;
68714;SDS011;55692;53.356;10.030;2023-09-30T04:15:00;25.55;;;5.63;;
68714;SDS011;55692;53.356;10.030;2023-09-30T04:17:29;29.25;;;5.97;;
68714;SDS011;55692;53.356;10.030;2023-09-30T04:19:56;24.65;;;5.85;;
68714;SDS011;55692;53.356;10.030;2023-09-30T04:22:22;31.52;;;6.38;;
68714;SDS011;55692;53.356;10.030;2023-09-30T04:24:49;35.42;;;6.22;;
68714;SDS011;55692;53.356;10.030;2023-09-30T04:27:15;27.02;;;5.82;;
68714;SDS011;55692;53.356;10.030;2023-09-30T04:29:42;35.90;;;5.78;;
68714;SDS011;55692;53.356;10.030;2023-09-30T04:32:08;34.78;;;6.28;;
68714;SDS011;55692;53.356;10.030;2023-09-30T04:34:34;32.40;;;6.47;;
68714;SDS011;55692;53.356;10.030;2023-09-30T04:37:00;42.22;;;6.43;;
68714;SDS011;55692;53.356;10.030;2023-09-30T04:39:27;32.92;;;6.40;;
68714;SDS011;55692;53.356;10.030;2023-09-30T04:41:53;24.77;;;5.97;;
68714;SDS011;55692;53.356;10.030;2023-09-30T04:44:20;33.80;;;5.97;;
68714;SDS011;55692;53.356;10.030;2023-09-30T04:46:47;30.17;;;6.35;;
68714;SDS011;55692;53.356;10.030;2023-09-30T04:49:14;30.92;;;6.18;;
68714;SDS011;55692;53.356;10.030;2023-09-30T04:51:42;30.00;;;6.35;;
68714;SDS011;55692;53.356;10.030;2023-09-30T04:54:09;27.75;;;6.18;;
68714;SDS011;55692;53.356;10.030;2023-09-30T04:56:35;35.42;;;6.15;;
68714;SDS011;55692;53.356;10.030;2023-09-30T04:59:01;35.90;;;6.38;;
68714;SDS011;55692;53.356;10.030;2023-09-30T05:01:29;22.75;;;5.75;;
68714;SDS011;55692;53.356;10.030;2023-09-30T05:03:55;31.63;;;6.15;;
68714;SDS011;55692;53.356;10.030;2023-09-30T05:06:22;26.58;;;6.13;;
68714;SDS011;55692;53.356;10.030;2023-09-30T05:08:48;26.65;;;6.63;;
68714;SDS011;55692;53.356;10.030;2023-09-30T05:11:14;31.70;;;6.70;;
68714;SDS011;55692;53.356;10.030;2023-09-30T05:13:40;25.25;;;5.57;;
68714;SDS011;55692;53.356;10.030;2023-09-30T05:16:06;23.88;;;6.25;;
68714;SDS011;55692;53.356;10.030;2023-09-30T05:18:32;39.85;;;6.60;;
68714;SDS011;55692;53.356;10.030;2023-09-30T05:20:58;20.90;;;5.07;;
68714;SDS011;55692;53.356;10.030;2023-09-30T05:23:25;32.38;;;6.57;;
68714;SDS011;55692;53.356;10.030;2023-09-30T05:25:51;22.48;;;5.30;;
68714;SDS011;55692;53.356;10.030;2023-09-30T05:28:18;30.77;;;5.50;;
68714;SDS011;55692;53.356;10.030;2023-09-30T05:30:44;29.13;;;5.72;;
68714;SDS011;55692;53.356;10.030;2023-09-30T05:33:10;26.67;;;6.15;;
68714;SDS011;55692;53.356;10.030;2023-09-30T05:35:42;27.27;;;6.05;;
68714;SDS011;55692;53.356;10.030;2023-09-30T05:38:08;39.75;;;6.40;;
68714;SDS011;55692;53.356;10.030;2023-09-30T05:40:35;24.50;;;5.78;;
68714;SDS011;55692;53.356;10.030;2023-09-30T05:43:01;24.98;;;6.30;;
68714;SDS011;55692;53.356;10.030;2023-09-30T05:45:28;33.60;;;6.35;;
68714;SDS011;55692;53.356;10.030;2023-09-30T05:47:56;31.55;;;6.50;;
68714;SDS011;55692;53.356;10.030;2023-09-30T05:50:27;29.52;;;6.75;;
68714;SDS011;55692;53.356;10.030;2023-09-30T05:52:53;33.28;;;6.15;;
68714;SDS011;55692;53.356;10.030;2023-09-30T05:55:23;27.27;;;6.05;;
68714;SDS011;55692;53.356;10.030;2023-09-30T05:57:50;24.13;;;6.03;;
68714;SDS011;55692;53.356;10.030;2023-09-30T06:00:17;36.00;;;5.97;;
68714;SDS011;55692;53.356;10.030;2023-09-30T06:03:01;19.75;;;5.20;;
68714;SDS011;55692;53.356;10.030;2023-09-30T06:05:30;38.75;;;6.28;;
68714;SDS011;55692;53.356;10.030;2023-09-30T06:07:57;32.53;;;6.05;;
68714;SDS011;55692;53.356;10.030;2023-09-30T06:10:23;38.72;;;6.55;;
68714;SDS011;55692;53.356;10.030;2023-09-30T06:12:51;37.35;;;6.32;;
68714;SDS011;55692;53.356;10.030;2023-09-30T06:15:20;25.17;;;6.50;;
68714;SDS011;55692;53.356;10.030;2023-09-30T06:17:47;27.95;;;5.38;;
68714;SDS011;55692;53.356;10.030;2023-09-30T06:20:13;34.42;;;6.00;;
68714;SDS011;55692;53.356;10.030;2023-09-30T06:22:43;37.63;;;6.35;;
68714;SDS011;55692;53.356;10.030;2023-09-30T06:25:10;37.78;;;6.03;;
68714;SDS011;55692;53.356;10.030;2023-09-30T06:27:36;31.35;;;6.00;;
68714;SDS011;55692;53.356;10.030;2023-09-30T06:30:03;24.50;;;5.70;;
68714;SDS011;55692;53.356;10.030;2023-09-30T06:32:30;26.63;;;5.28;;
68714;SDS011;55692;53.356;10.030;2023-09-30T06:34:56;27.73;;;5.53;;
68714;SDS011;55692;53.356;10.030;2023-09-30T06:37:22;32.80;;;5.10;;
68714;SDS011;55692;53.356;10.030;2023-09-30T06:39:48;25.20;;;6.35;;
68714;SDS011;55692;53.356;10.030;2023-09-30T06:42:14;21.27;;;5.55;;
68714;SDS011;55692;53.356;10.030;2023-09-30T06:44:41;25.50;;;5.55;;
68714;SDS011;55692;53.356;10.030;2023-09-30T06:47:07;25.67;;;5.53;;
68714;SDS011;55692;53.356;10.030;2023-09-30T06:49:37;24.83;;;6.05;;
68714;SDS011;55692;53.356;10.030;2023-09-30T06:52:03;27.30;;;5.60;;
68714;SDS011;55692;53.356;10.030;2023-09-30T06:54:30;24.50;;;6.22;;
68714;SDS011;55692;53.356;10.030;2023-09-30T06:56:56;34.78;;;6.45;;
68714;SDS011;55692;53.356;10.030;2023-09-30T06:59:22;25.73;;;5.75;;
68714;SDS011;55692;53.356;10.030;2023-09-30T07:01:50;19.90;;;5.40;;
68714;SDS011;55692;53.356;10.030;2023-09-30T07:04:16;30.30;;;6.32;;
68714;SDS011;55692;53.356;10.030;2023-09-30T07:06:42;26.75;;;6.25;;
68714;SDS011;55692;53.356;10.030;2023-09-30T07:09:08;20.60;;;5.68;;
68714;SDS011;55692;53.356;10.030;2023-09-30T07:11:35;24.00;;;5.90;;
68714;SDS011;55692;53.356;10.030;2023-09-30T07:14:01;34.60;;;6.15;;
68714;SDS011;55692;53.356;10.030;2023-09-30T07:16:27;28.20;;;6.45;;
68714;SDS011;55692;53.356;10.030;2023-09-30T07:18:53;22.48;;;5.55;;
68714;SDS011;55692;53.356;10.030;2023-09-30T07:21:20;33.40;;;6.15;;
68714;SDS011;55692;53.356;10.030;2023-09-30T07:23:46;21.73;;;5.35;;
68714;SDS011;55692;53.356;10.030;2023-09-30T07:26:13;29.77;;;6.15;;
68714;SDS011;55692;53.356;10.030;2023-09-30T07:28:39;18.50;;;5.63;;
68714;SDS011;55692;53.356;10.030;2023-09-30T07:31:05;23.77;;;6.28;;
68714;SDS011;55692;53.356;10.030;2023-09-30T07:33:31;22.80;;;6.03;;
68714;SDS011;55692;53.356;10.030;2023-09-30T07:35:57;22.42;;;5.90;;
68714;SDS011;55692;53.356;10.030;2023-09-30T07:38:23;18.77;;;4.93;;
68714;SDS011;55692;53.356;10.030;2023-09-30T07:40:49;20.17;;;5.63;;
68714;SDS011;55692;53.356;10.030;2023-09-30T07:43:15;25.77;;;5.03;;
68714;SDS011;55692;53.356;10.030;2023-09-30T07:45:42;14.70;;;4.25;;
68714;SDS011;55692;53.356;10.030;2023-09-30T07:48:08;15.30;;;4.00;;
68714;SDS011;55692;53.356;10.030;2023-09-30T07:50:35;17.60;;;3.97;;
68714;SDS011;55692;53.356;10.030;2023-09-30T07:53:01;18.17;;;3.55;;
68714;SDS011;55692;53.356;10.030;2023-09-30T07:55:28;15.40;;;3.70;;
68714;SDS011;55692;53.356;10.030;2023-09-30T07:57:54;11.50;;;3.55;;
68714;SDS011;55692;53.356;10.030;2023-09-30T08:00:22;15.75;;;3.83;;
68714;SDS011;55692;53.356;10.030;2023-09-30T08:02:48;17.75;;;4.80;;
68714;SDS011;55692;53.356;10.030;2023-09-30T08:05:15;11.88;;;3.15;;
68714;SDS011;55692;53.356;10.030;2023-09-30T08:07:41;13.90;;;3.33;;
68714;SDS011;55692;53.356;10.030;2023-09-30T08:10:08;10.55;;;3.22;;
68714;SDS011;55692;53.356;10.030;2023-09-30T08:12:38;10.27;;;2.97;;
68714;SDS011;55692;53.356;10.030;2023-09-30T08:15:04;13.35;;;2.90;;
68714;SDS011;55692;53.356;10.030;2023-09-30T08:17:31;14.25;;;3.17;;
68714;SDS011;55692;53.356;10.030;2023-09-30T08:19:58;14.20;;;3.08;;
68714;SDS011;55692;53.356;10.030;2023-09-30T08:22:25;11.73;;;2.80;;
68714;SDS011;55692;53.356;10.030;2023-09-30T08:24:53;9.30;;;2.35;;
68714;SDS011;55692;53.356;10.030;2023-09-30T08:27:19;9.65;;;2.65;;
68714;SDS011;55692;53.356;10.030;2023-09-30T08:29:45;12.05;;;2.70;;
68714;SDS011;55692;53.356;10.030;2023-09-30T08:32:11;9.05;;;2.63;;
68714;SDS011;55692;53.356;10.030;2023-09-30T08:34:37;9.80;;;2.35;;
68714;SDS011;55692;53.356;10.030;2023-09-30T08:37:04;10.48;;;2.35;;
68714;SDS011;55692;53.356;10.030;2023-09-30T08:39:30;9.07;;;2.42;;
68714;SDS011;55692;53.356;10.030;2023-09-30T08:41:56;10.27;;;2.72;;
68714;SDS011;55692;53.356;10.030;2023-09-30T08:44:21;14.18;;;2.35;;
68714;SDS011;55692;53.356;10.030;2023-09-30T08:46:48;12.63;;;3.10;;
68714;SDS011;55692;53.356;10.030;2023-09-30T08:49:14;12.43;;;2.38;;
68714;SDS011;55692;53.356;10.030;2023-09-30T08:51:40;10.90;;;2.45;;
68714;SDS011;55692;53.356;10.030;2023-09-30T08:54:07;9.98;;;2.40;;
68714;SDS011;55692;53.356;10.030;2023-09-30T08:56:33;15.00;;;3.30;;
68714;SDS011;55692;53.356;10.030;2023-09-30T08:59:01;9.77;;;2.40;;
68714;SDS011;55692;53.356;10.030;2023-09-30T09:01:28;9.93;;;2.30;;
68714;SDS011;55692;53.356;10.030;2023-09-30T09:03:54;9.02;;;2.05;;
68714;SDS011;55692;53.356;10.030;2023-09-30T09:06:21;11.32;;;2.60;;
68714;SDS011;55692;53.356;10.030;2023-09-30T09:08:47;17.55;;;3.33;;
68714;SDS011;55692;53.356;10.030;2023-09-30T09:11:14;8.85;;;2.42;;
68714;SDS011;55692;53.356;10.030;2023-09-30T09:13:47;16.42;;;4.20;;
68714;SDS011;55692;53.356;10.030;2023-09-30T09:16:15;8.00;;;2.72;;
68714;SDS011;55692;53.356;10.030;2023-09-30T09:18:42;13.73;;;2.80;;
68714;SDS011;55692;53.356;10.030;2023-09-30T09:23:43;9.90;;;3.10;;
68714;SDS011;55692;53.356;10.030;2023-09-30T09:26:10;13.98;;;3.03;;
68714;SDS011;55692;53.356;10.030;2023-09-30T09:28:36;16.70;;;3.47;;
68714;SDS011;55692;53.356;10.030;2023-09-30T09:31:20;14.23;;;3.33;;
68714;SDS011;55692;53.356;10.030;2023-09-30T09:33:47;12.00;;;2.45;;
68714;SDS011;55692;53.356;10.030;2023-09-30T09:36:14;11.15;;;2.47;;
68714;SDS011;55692;53.356;10.030;2023-09-30T09:38:44;13.73;;;2.80;;
68714;SDS011;55692;53.356;10.030;2023-09-30T09:41:10;10.95;;;2.08;;
68714;SDS011;55692;53.356;10.030;2023-09-30T09:43:40;13.43;;;2.28;;
68714;SDS011;55692;53.356;10.030;2023-09-30T09:46:07;10.75;;;2.40;;
68714;SDS011;55692;53.356;10.030;2023-09-30T09:48:36;12.98;;;2.50;;
68714;SDS011;55692;53.356;10.030;2023-09-30T09:51:03;10.27;;;2.20;;
68714;SDS011;55692;53.356;10.030;2023-09-30T09:53:36;7.90;;;2.55;;
68714;SDS011;55692;53.356;10.030;2023-09-30T09:56:05;10.83;;;2.50;;
68714;SDS011;55692;53.356;10.030;2023-09-30T09:58:35;21.00;;;2.63;;
68714;SDS011;55692;53.356;10.030;2023-09-30T10:01:04;14.13;;;2.63;;
68714;SDS011;55692;53.356;10.030;2023-09-30T10:03:31;11.05;;;2.15;;
68714;SDS011;55692;53.356;10.030;2023-09-30T10:06:00;10.25;;;2.28;;
68714;SDS011;55692;53.356;10.030;2023-09-30T10:08:37;12.98;;;2.53;;
68714;SDS011;55692;53.356;10.030;2023-09-30T10:11:04;13.32;;;2.50;;
68714;SDS011;55692;53.356;10.030;2023-09-30T10:24:29;11.88;;;2.22;;
68714;SDS011;55692;53.356;10.030;2023-09-30T10:29:41;12.80;;;2.33;;
68714;SDS011;55692;53.356;10.030;2023-09-30T10:32:07;6.95;;;1.50;;
68714;SDS011;55692;53.356;10.030;2023-09-30T10:34:34;10.65;;;2.13;;
68714;SDS011;55692;53.356;10.030;2023-09-30T10:37:09;10.48;;;2.22;;
68714;SDS011;55692;53.356;10.030;2023-09-30T10:40:00;8.82;;;1.60;;
68714;SDS011;55692;53.356;10.030;2023-09-30T10:47:56;16.58;;;1.90;;
68714;SDS011;55692;53.356;10.030;2023-09-30T10:50:49;8.88;;;2.08;;
68714;SDS011;55692;53.356;10.030;2023-09-30T10:53:15;9.82;;;1.88;;
68714;SDS011;55692;53.356;10.030;2023-09-30T10:55:44;12.30;;;1.67;;
68714;SDS011;55692;53.356;10.030;2023-09-30T10:58:12;10.23;;;1.80;;
68714;SDS011;55692;53.356;10.030;2023-09-30T11:00:38;9.07;;;2.65;;
68714;SDS011;55692;53.356;10.030;2023-09-30T11:03:10;6.63;;;1.50;;
68714;SDS011;55692;53.356;10.030;2023-09-30T11:05:37;10.20;;;1.73;;
68714;SDS011;55692;53.356;10.030;2023-09-30T11:08:03;11.52;;;1.95;;
68714;SDS011;55692;53.356;10.030;2023-09-30T11:10:29;7.60;;;1.98;;
68714;SDS011;55692;53.356;10.030;2023-09-30T11:12:57;5.20;;;1.65;;
68714;SDS011;55692;53.356;10.030;2023-09-30T11:15:24;9.48;;;1.83;;
68714;SDS011;55692;53.356;10.030;2023-09-30T11:17:51;9.70;;;1.80;;
68714;SDS011;55692;53.356;10.030;2023-09-30T11:20:18;10.13;;;1.75;;
68714;SDS011;55692;53.356;10.030;2023-09-30T11:22:44;13.93;;;1.60;;
68714;SDS011;55692;53.356;10.030;2023-09-30T11:25:20;11.70;;;1.70;;
68714;SDS011;55692;53.356;10.030;2023-09-30T11:27:48;7.57;;;1.55;;
68714;SDS011;55692;53.356;10.030;2023-09-30T11:30:14;6.13;;;1.42;;
68714;SDS011;55692;53.356;10.030;2023-09-30T11:32:40;15.25;;;2.40;;
68714;SDS011;55692;53.356;10.030;2023-09-30T11:35:21;5.22;;;1.40;;
68714;SDS011;55692;53.356;10.030;2023-09-30T11:37:47;9.35;;;1.73;;
68714;SDS011;55692;53.356;10.030;2023-09-30T11:40:13;6.63;;;1.30;;
68714;SDS011;55692;53.356;10.030;2023-09-30T11:42:40;7.50;;;1.60;;
68714;SDS011;55692;53.356;10.030;2023-09-30T11:45:19;11.27;;;1.50;;
68714;SDS011;55692;53.356;10.030;2023-09-30T11:47:47;12.00;;;1.55;;
68714;SDS011;55692;53.356;10.030;2023-09-30T11:50:13;10.25;;;1.20;;
68714;SDS011;55692;53.356;10.030;2023-09-30T11:52:39;13.13;;;2.95;;
68714;SDS011;55692;53.356;10.030;2023-09-30T11:55:11;6.28;;;1.75;;
68714;SDS011;55692;53.356;10.030;2023-09-30T11:57:37;5.97;;;1.10;;
68714;SDS011;55692;53.356;10.030;2023-09-30T12:00:04;6.15;;;1.08;;
68714;SDS011;55692;53.356;10.030;2023-09-30T12:02:38;11.48;;;1.50;;
68714;SDS011;55692;53.356;10.030;2023-09-30T12:05:05;7.82;;;1.42;;
68714;SDS011;55692;53.356;10.030;2023-09-30T12:07:36;4.43;;;1.20;;
68714;SDS011;55692;53.356;10.030;2023-09-30T12:10:02;11.48;;;1.65;;
68714;SDS011;55692;53.356;10.030;2023-09-30T12:12:28;6.97;;;1.27;;
68714;SDS011;55692;53.356;10.030;2023-09-30T12:14:54;5.05;;;1.23;;
68714;SDS011;55692;53.356;10.030;2023-09-30T12:17:20;7.30;;;1.77;;
68714;SDS011;55692;53.356;10.030;2023-09-30T12:19:47;5.70;;;0.90;;
68714;SDS011;55692;53.356;10.030;2023-09-30T12:22:13;6.22;;;1.25;;
68714;SDS011;55692;53.356;10.030;2023-09-30T12:24:39;4.13;;;1.05;;
68714;SDS011;55692;53.356;10.030;2023-09-30T12:27:05;15.10;;;1.85;;
68714;SDS011;55692;53.356;10.030;2023-09-30T12:29:31;6.32;;;1.10;;
68714;SDS011;55692;53.356;10.030;2023-09-30T12:31:57;4.40;;;1.13;;
68714;SDS011;55692;53.356;10.030;2023-09-30T12:34:23;9.55;;;1.35;;
68714;SDS011;55692;53.356;10.030;2023-09-30T12:36:50;8.02;;;1.92;;
68714;SDS011;55692;53.356;10.030;2023-09-30T12:39:16;9.82;;;1.05;;
68714;SDS011;55692;53.356;10.030;2023-09-30T12:41:48;7.57;;;1.87;;
68714;SDS011;55692;53.356;10.030;2023-09-30T12:44:15;4.40;;;1.10;;
68714;SDS011;55692;53.356;10.030;2023-09-30T12:46:42;5.38;;;1.25;;
68714;SDS011;55692;53.356;10.030;2023-09-30T12:49:08;9.10;;;1.30;;
68714;SDS011;55692;53.356;10.030;2023-09-30T12:51:35;10.18;;;2.22;;
68714;SDS011;55692;53.356;10.030;2023-09-30T12:54:01;5.63;;;1.48;;
68714;SDS011;55692;53.356;10.030;2023-09-30T12:56:28;7.65;;;1.70;;
68714;SDS011;55692;53.356;10.030;2023-09-30T12:58:58;6.50;;;1.35;;
68714;SDS011;55692;53.356;10.030;2023-09-30T13:01:24;11.55;;;1.50;;
68714;SDS011;55692;53.356;10.030;2023-09-30T13:03:50;4.50;;;0.93;;
68714;SDS011;55692;53.356;10.030;2023-09-30T13:06:16;4.97;;;1.30;;
68714;SDS011;55692;53.356;10.030;2023-09-30T13:08:42;2.03;;;0.68;;
68714;SDS011;55692;53.356;10.030;2023-09-30T13:11:08;6.90;;;1.38;;
68714;SDS011;55692;53.356;10.030;2023-09-30T13:13:36;7.25;;;1.52;;
68714;SDS011;55692;53.356;10.030;2023-09-30T13:16:02;4.00;;;1.45;;
68714;SDS011;55692;53.356;10.030;2023-09-30T13:18:32;4.95;;;1.00;;
68714;SDS011;55692;53.356;10.030;2023-09-30T13:20:58;6.22;;;0.85;;
68714;SDS011;55692;53.356;10.030;2023-09-30T13:23:24;3.67;;;1.00;;
68714;SDS011;55692;53.356;10.030;2023-09-30T13:25:52;5.30;;;1.27;;
68714;SDS011;55692;53.356;10.030;2023-09-30T13:28:18;5.65;;;1.58;;
68714;SDS011;55692;53.356;10.030;2023-09-30T13:30:44;7.15;;;1.65;;
68714;SDS011;55692;53.356;10.030;2023-09-30T13:33:10;6.20;;;1.48;;
68714;SDS011;55692;53.356;10.030;2023-09-30T13:35:36;7.28;;;1.30;;
68714;SDS011;55692;53.356;10.030;2023-09-30T13:38:03;6.22;;;1.48;;
68714;SDS011;55692;53.356;10.030;2023-09-30T13:40:29;6.47;;;1.23;;
68714;SDS011;55692;53.356;10.030;2023-09-30T13:42:55;5.30;;;1.15;;
68714;SDS011;55692;53.356;10.030;2023-09-30T13:45:23;3.63;;;0.90;;
68714;SDS011;55692;53.356;10.030;2023-09-30T13:47:50;5.38;;;1.20;;
68714;SDS011;55692;53.356;10.030;2023-09-30T13:50:16;8.75;;;0.77;;
68714;SDS011;55692;53.356;10.030;2023-09-30T13:52:42;9.45;;;1.27;;
68714;SDS011;55692;53.356;10.030;2023-09-30T13:55:08;4.82;;;0.95;;
68714;SDS011;55692;53.356;10.030;2023-09-30T13:57:34;5.28;;;1.20;;
68714;SDS011;55692;53.356;10.030;2023-09-30T14:00:00;7.50;;;1.48;;
68714;SDS011;55692;53.356;10.030;2023-09-30T14:02:28;4.82;;;1.45;;
68714;SDS011;55692;53.356;10.030;2023-09-30T14:04:55;7.85;;;1.45;;
68714;SDS011;55692;53.356;10.030;2023-09-30T14:07:20;6.22;;;0.88;;
68714;SDS011;55692;53.356;10.030;2023-09-30T14:09:46;4.75;;;1.10;;
68714;SDS011;55692;53.356;10.030;2023-09-30T14:12:12;6.30;;;1.13;;
68714;SDS011;55692;53.356;10.030;2023-09-30T14:14:38;4.45;;;1.13;;
68714;SDS011;55692;53.356;10.030;2023-09-30T14:17:05;3.50;;;0.73;;
68714;SDS011;55692;53.356;10.030;2023-09-30T14:19:35;5.63;;;1.00;;
68714;SDS011;55692;53.356;10.030;2023-09-30T14:22:01;5.47;;;1.00;;
68714;SDS011;55692;53.356;10.030;2023-09-30T14:24:29;7.60;;;1.27;;
68714;SDS011;55692;53.356;10.030;2023-09-30T14:26:55;5.07;;;1.02;;
68714;SDS011;55692;53.356;10.030;2023-09-30T14:29:21;3.42;;;0.85;;
68714;SDS011;55692;53.356;10.030;2023-09-30T14:31:47;7.78;;;1.45;;
68714;SDS011;55692;53.356;10.030;2023-09-30T14:34:12;5.95;;;0.95;;
68714;SDS011;55692;53.356;10.030;2023-09-30T14:36:40;5.97;;;0.93;;
68714;SDS011;55692;53.356;10.030;2023-09-30T14:39:06;3.05;;;1.08;;
68714;SDS011;55692;53.356;10.030;2023-09-30T14:41:33;3.83;;;1.08;;
68714;SDS011;55692;53.356;10.030;2023-09-30T14:43:59;5.93;;;1.13;;
68714;SDS011;55692;53.356;10.030;2023-09-30T14:46:26;4.53;;;1.20;;